Latest Coastal Weather Observations for Hamilton Island

IDQ60701

Issued at 6:51 pm EST Wednesday 19 June 2019 (issued every 10 minutes, with the page automatically refreshed every 10 minutes)

About coastal observations | Map of coastal stations | Coastal observations for QLD | Marine services | Other Formats
Station Details ID: 033106 Name: HAMILTON ISLAND AIRPORT Lat: -20.37 Lon: 148.95 Height: 58.66 m
Data from the previous 72 hours. | See also: Recent months at Hamilton Island
Date/Time
EST
Wind Sea
Height
m
Swell Vis
km
Cloud Weather Temp
°C
Press
hPa
Rain since
9am
mm
Dir  Spd
kts
Gust
kts
Height
m
Period
s
Dir
19/06:30pm ESE 16 19 - - - - 10 - - 19.0 1018.0 0.0
19/06:00pm ESE 17 20 - - - - 10 - - 19.0 1017.5 0.0
19/05:30pm ESE 16 20 - - - - 10 - - 18.9 1017.1 0.0
19/05:00pm ESE 16 20 - - - - 10 - - 19.1 1016.9 0.0
19/04:30pm ESE 16 19 - - - - 10 - - 19.2 1016.6 0.0
19/04:00pm ESE 16 19 - - - - 10 - - 19.4 1016.6 0.0
19/03:30pm SE 15 18 - - - - 10 - - 19.6 1016.5 0.0
19/03:00pm SE 17 19 - - - - 10 - - 19.8 1016.4 0.0
19/02:30pm SE 16 19 - - - - 10 - - 19.8 1016.5 0.0
19/02:00pm SE 17 20 - - - - 10 - - 19.9 1016.7 0.0
19/01:30pm SSE 17 20 - - - - 10 - - 19.5 1016.9 0.0
19/01:00pm SSE 17 20 - - - - 10 - - 19.7 1017.2 0.0
19/12:30pm SSE 17 20 - - - - 10 - - 19.8 1017.9 0.0
19/12:00pm SE 17 20 - - - - 10 - - 20.1 1018.4 0.0
19/11:30am SE 17 19 - - - - 10 - - 19.6 1018.8 0.0
19/11:00am SSE 16 19 - - - - 10 - - 19.6 1019.3 0.0
19/10:30am SSE 16 19 - - - - 10 - - 19.7 1019.4 0.0
19/10:00am SSE 17 22 - - - - 10 - - 19.5 1019.5 0.0
19/09:30am SSE 17 20 - - - - 10 - - 19.8 1019.5 0.0
19/09:00am SSE 16 20 - - - - 10 - - 19.7 1019.4 0.0
19/08:30am SSE 20 23 - - - - 10 - - 19.5 1019.1 0.0
19/08:00am SSE 17 21 - - - - 10 - - 19.4 1018.8 0.0
19/07:30am SSE 17 21 - - - - 10 - - 19.0 1018.4 0.0
19/07:00am SSE 13 17 - - - - 10 - - 18.6 1018.0 0.0
19/06:30am SSE 13 17 - - - - 10 - - 18.4 1017.7 0.0
19/06:00am SSE 13 16 - - - - 10 - - 18.4 1017.3 0.0
19/05:30am SSE 13 16 - - - - 10 - - 18.4 1017.0 0.0
19/05:00am S 13 16 - - - - 10 - - 17.9 1016.8 0.0
19/04:30am S 13 15 - - - - 10 - - 17.9 1016.6 0.0
19/04:00am S 13 17 - - - - 10 - - 18.0 1016.6 0.0
19/03:30am SSW 11 14 - - - - 10 - - 17.6 1016.6 0.0
19/03:00am S 12 14 - - - - 10 - - 18.1 1016.7 0.0
19/02:30am S 10 13 - - - - 10 - - 18.2 1016.9 0.0
19/02:00am S 11 13 - - - - 10 - - 18.4 1017.2 0.0
19/01:30am S 10 12 - - - - 10 - - 18.3 1017.4 0.0
19/01:00am S 9 11 - - - - 10 - - 18.3 1017.7 0.0
19/12:30am S 9 11 - - - - 10 - - 18.3 1018.0 0.0
19/12:00am S 11 14 - - - - 10 - - 18.9 1018.3 0.0
 
Date/Time
EST
Wind Sea
Height
m
Swell Vis
km
Cloud Weather Temp
°C
Press
hPa
Rain since
9am
mm
Dir  Spd
kts
Gust
kts
Height
m
Period
s
Dir
18/11:30pm SSE 10 13 - - - - 10 - - 19.5 1018.5 0.0
18/11:00pm SSE 8 11 - - - - 10 - - 19.5 1018.5 0.0
18/10:30pm SSE 8 9 - - - - 10 - - 19.5 1018.5 0.0
18/10:00pm SSE 8 10 - - - - 10 - - 19.5 1018.5 0.0
18/09:30pm SE 8 9 - - - - 10 - - 19.0 1018.3 0.0
18/09:00pm SE 7 9 - - - - 10 - - 19.1 1018.1 0.0
18/08:30pm SE 9 11 - - - - 10 - - 19.2 1017.8 0.0
18/08:00pm ESE 9 10 - - - - 10 - - 19.5 1017.5 0.0
18/07:30pm ESE 11 13 - - - - 10 - - 19.3 1017.1 0.0
18/07:00pm ESE 10 13 - - - - 10 - - 19.6 1016.9 0.0
18/06:30pm ESE 11 13 - - - - 10 - - 19.4 1016.6 0.0
18/06:00pm E 9 11 - - - - 10 - - 19.3 1016.3 0.0
18/05:30pm ESE 10 12 - - - - 10 - - 19.2 1016.1 0.0
18/05:00pm ESE 9 11 - - - - 10 - - 19.3 1015.9 0.0
18/04:30pm ESE 11 14 - - - - 10 - - 19.5 1015.7 0.0
18/04:00pm ESE 11 13 - - - - 10 - - 19.8 1015.5 0.0
18/03:30pm ESE 10 11 - - - - 10 - - 19.9 1015.5 0.0
18/03:00pm SE 11 13 - - - - 10 - - 20.1 1015.7 0.0
18/02:30pm SE 13 15 - - - - 10 - - 20.1 1016.0 0.0
18/02:00pm SE 14 17 - - - - 10 - - 20.4 1016.1 0.0
18/01:30pm SE 16 19 - - - - 10 - - 20.3 1016.5 0.0
18/01:00pm SSE 16 19 - - - - 10 - - 20.0 1016.9 0.0
18/12:30pm SSE 16 19 - - - - 10 - - 20.3 1017.3 0.0
18/12:00pm SE 15 18 - - - - 10 - - 20.7 1017.9 0.0
18/11:30am SE 16 19 - - - - 10 - - 20.9 1018.1 0.0
18/11:00am SE 16 20 - - - - 10 - - 20.9 1018.4 0.0
18/10:30am SE 16 19 - - - - 10 - - 20.7 1018.6 0.0
18/10:00am SE 14 17 - - - - 10 - - 21.0 1018.9 0.0
18/09:30am SE 15 18 - - - - 10 - - 20.5 1018.8 0.0
18/09:00am SE 17 20 - - - - 10 - - 20.4 1018.6 0.0
18/08:30am SE 18 20 - - - - 10 - - 19.7 1018.4 0.0
18/08:00am SE 17 19 - - - - 10 - - 19.6 1018.0 0.0
18/07:30am SE 16 19 - - - - 10 - - 19.5 1017.5 0.0
18/07:00am SE 16 19 - - - - 10 - - 18.9 1017.2 0.0
18/06:30am SE 15 18 - - - - 10 - - 18.9 1016.8 0.0
18/06:00am SSE 13 16 - - - - 10 - - 19.0 1016.5 0.0
18/05:30am SSE 15 18 - - - - 10 - - 19.1 1016.4 0.0
18/05:00am SSE 16 21 - - - - 10 - - 19.3 1016.1 0.0
18/04:30am SSE 16 21 - - - - 10 - - 19.4 1016.1 0.0
18/04:00am SSE 12 15 - - - - 10 - - 19.5 1016.2 0.0
18/03:30am SSE 12 15 - - - - 10 - - 19.5 1016.2 0.0
18/03:00am S 12 15 - - - - 10 - - 19.8 1016.3 0.0
18/02:30am S 13 17 - - - - 10 - - 19.8 1016.4 0.0
18/02:00am SSE 10 12 - - - - 10 - - 20.0 1016.6 0.0
18/01:30am SSE 9 11 - - - - 10 - - 19.9 1016.9 0.0
18/01:00am S 10 11 - - - - 10 - - 19.9 1017.1 0.0
18/12:30am S 11 13 - - - - 10 - - 20.0 1017.2 0.0
18/12:00am S 9 11 - - - - 10 - - 19.9 1017.3 0.0
 
Date/Time
EST
Wind Sea
Height
m
Swell Vis
km
Cloud Weather Temp
°C
Press
hPa
Rain since
9am
mm
Dir  Spd
kts
Gust
kts
Height
m
Period
s
Dir
17/11:30pm S 8 10 - - - - 10 - - 20.2 1017.4 0.0
17/11:00pm SSE 7 9 - - - - 10 - - 20.4 1017.7 0.0
17/10:30pm SSE 8 9 - - - - 10 - - 20.6 1017.9 0.0
17/10:00pm SSE 8 10 - - - - 10 Partly cloudy - 20.5 1017.9 0.0
17/09:30pm SE 11 13 - - - - 10 Partly cloudy - 20.4 1017.9 0.0
17/09:00pm SE 9 11 - - - - 10 Partly cloudy - 20.6 1017.8 0.0
17/08:30pm SE 10 11 - - - - 10 - - 20.7 1017.7 0.0
17/08:00pm SE 10 11 - - - - 10 - - 20.4 1017.2 0.0
17/07:30pm SE 9 11 - - - - 10 - - 20.5 1016.8 0.0
17/07:00pm SE 7 8 - - - - 10 - - 20.6 1016.5 0.0
17/06:30pm ESE 7 9 - - - - 10 - - 20.7 1016.1 0.0
17/06:00pm ESE 8 9 - - - - 10 - - 20.9 1015.7 0.0
17/05:30pm ESE 8 9 - - - - 10 - - 20.8 1015.5 0.0
17/05:00pm ESE 9 10 - - - - 10 - - 21.3 1015.1 0.0
17/04:30pm ESE 7 9 - - - - 10 - - 21.5 1015.0 0.0
17/04:00pm E 9 10 - - - - 10 - - 21.9 1014.8 0.0
17/03:30pm ESE 7 8 - - - - 10 - - 22.1 1014.7 0.0
17/03:00pm SE 6 7 - - - - 10 - - 21.8 1014.7 0.0
17/02:30pm SSE 7 8 - - - - 10 - - 22.2 1014.8 0.0
17/02:00pm SE 7 8 - - - - 10 - - 22.0 1015.0 0.0
17/01:30pm SE 9 10 - - - - 10 - - 21.8 1015.3 0.0
17/01:00pm SE 9 10 - - - - 10 - - 21.7 1015.7 0.0
17/12:30pm SE 8 9 - - - - 10 - - 21.8 1016.1 0.0
17/12:00pm SE 7 8 - - - - 10 - - 21.9 1016.5 0.0
17/11:30am SE 6 7 - - - - 10 - - 21.5 1016.9 0.0
17/11:00am SE 6 7 - - - - 10 - - 21.9 1017.2 0.0
17/10:30am SE 6 7 - - - - 10 - - 21.7 1017.7 0.0
17/10:00am SE 6 7 - - - - 10 Partly cloudy - 21.3 1018.1 0.0
17/09:30am S 6 8 - - - - 10 - - 21.4 1018.3 0.0
17/09:00am SSW 5 6 - - - - 10 Mostly clear - 20.5 1018.1 3.0
17/08:30am SW 4 5 - - - - 10 Partly cloudy - 20.5 1017.8 3.0
17/08:00am SSW 3 4 - - - - 10 - - 20.5 1017.5 3.0
17/07:30am SE 3 4 - - - - 10 - - 20.2 1017.1 3.0
17/07:17am CALM 0 0 - - - - 10 Partly cloudy - 19.8 1016.9 3.0
17/07:00am CALM 0 0 - - - - 10 Partly cloudy - 19.6 1016.8 3.0
17/06:32am SSE 3 4 - - - - 10 Partly cloudy - 19.6 1016.6 3.0
17/06:30am SSE 3 4 - - - - 10 Partly cloudy - 19.7 1016.6 3.0
17/06:00am CALM 0 0 - - - - 10 Mostly clear - 19.7 1016.3 3.0
17/05:44am ESE 3 5 - - - - 10 Partly cloudy - 19.7 1016.2 3.0
17/05:30am SSE 3 4 - - - - 10 Partly cloudy - 19.7 1016.1 3.0
17/05:27am SSE 3 4 - - - - 10 Partly cloudy - 19.7 1016.1 3.0
17/05:07am SSE 5 6 - - - - 10 Partly cloudy - 19.7 1015.9 3.0
17/05:06am SSE 5 6 - - - - 10 Partly cloudy - 19.7 1015.9 3.0
17/05:00am S 3 5 - - - - 10 Partly cloudy - 19.8 1015.9 3.0
17/04:47am CALM 0 3 - - - - 10 Partly cloudy - 19.8 1015.8 3.0
17/04:30am SSW 5 6 - - - - 10 - - 19.8 1015.7 3.0
17/04:00am SSW 3 5 - - - - 10 - - 19.8 1015.7 3.0
17/03:30am SW 3 4 - - - - 10 - - 20.0 1015.5 3.0
17/03:00am SW 5 6 - - - - 10 - - 20.0 1015.5 2.6
17/02:36am SW 4 5 - - - - 10 Partly cloudy - 20.0 1015.5 2.6
17/02:30am SW 4 5 - - - - 10 Partly cloudy - 20.1 1015.6 2.6
17/02:00am SSW 5 6 - - - - 10 Cloudy - 20.2 1015.9 2.6
17/01:30am SSW 4 5 - - - - 10 Cloudy - 20.2 1016.3 2.6
17/01:00am SSW 5 6 - - - - 10 Partly cloudy - 20.3 1016.5 2.6
17/12:30am SSW 5 6 - - - - 10 Partly cloudy - 20.5 1016.7 2.6
17/12:00am SSW 5 5 - - - - 10 Mostly cloudy - 20.6 1016.9 2.6
 
Date/Time
EST
Wind Sea
Height
m
Swell Vis
km
Cloud Weather Temp
°C
Press
hPa
Rain since
9am
mm
Dir  Spd
kts
Gust
kts
Height
m
Period
s
Dir
16/11:30pm SSW 4 5 - - - - 10 Cloudy - 20.4 1017.1 2.6
16/11:00pm SSE 5 6 - - - - 10 Partly cloudy - 20.4 1017.3 2.6
16/10:57pm SSE 4 5 - - - - 10 Partly cloudy - 20.4 1017.3 2.6
16/10:30pm SSE 4 4 - - - - 10 - - 20.5 1017.4 2.6
16/10:00pm SSW 4 5 - - - - 10 - - 20.5 1017.7 2.6
16/09:30pm SSW 5 6 - - - - 10 - - 20.4 1017.8 2.6
16/09:00pm SW 5 7 - - - - 10 Partly cloudy - 20.5 1017.8 2.6
16/08:30pm SW 4 5 - - - - 10 Cloudy - 20.6 1017.5 2.6
16/08:00pm SW 2 4 - - - - 10 - - 20.7 1017.5 2.6
16/07:30pm CALM 0 0 - - - - 10 Cloudy - 20.7 1017.3 2.6
16/07:00pm SSW 1 4 - - - - 10 Partly cloudy - 20.6 1017.1 2.6

Other formats

Comma delimited format used in spreadsheet applications
http://www.bom.gov.au/fwo/IDQ60701/IDQ60701.94368.axf

JavaScript Object Notation format (JSON) in row-major order
http://www.bom.gov.au/fwo/IDQ60701/IDQ60701.94368.json

Data quality

Most of these data are generated automatically and are frequently updated. Quality checks on data are not normally performed. It is possible for incorrect values to appear. Refer to information at About Latest Weather Observations and please check the disclaimer before using these data.